KBMC

Brigham City Airport

Brigham City, Utah, USA
METAR KBMC 141630Z AUTO 00000KT 10SM CLR M07/M10 A3043 RMK AO1 T10681100
Observed Flight Rules
Dec-14 @ 16:30 UTC (34 minutes ago) Visual Flight Rules
Visibility Clouds
10 miles
  • Clear skies
Temperatures Readings
Current -7°C / 19°F
Dewpoint -10°C / 14°F
Humidity 79%
Altimeter 30.43" Hg
Pressure 1030 hPa
Elevation 1288
METAR KBMC 141630Z AUTO 00000KT 10SM CLR M07/M10 A3043 RMK AO1 T10681100
Observed Flight Rules
Dec-14 @ 16:30 UTC
(34 minutes ago)
VFR
Clouds
  • Clear skies
Temperature Dewpoint
-7°C / 19°F -10°C / 14°F
Humidity Altimeter Pressure
79% 30.43" Hg 1030 hPa